createdAt,value
2023-08-11T00:01:48.558Z,63.60
2023-08-11T00:03:51.026Z,64.60
2023-08-11T00:05:56.091Z,63.60
2023-08-11T00:07:58.172Z,63.70
2023-08-11T00:09:59.935Z,63.70
2023-08-11T00:12:02.018Z,63.70
2023-08-11T00:14:03.954Z,63.90
2023-08-11T00:16:06.110Z,63.70
2023-08-11T00:18:11.175Z,63.90
2023-08-11T00:20:13.174Z,64.10
2023-08-11T00:22:14.957Z,64.00
2023-08-11T00:24:17.424Z,63.90
2023-08-11T00:26:19.282Z,64.10
2023-08-11T00:28:21.252Z,64.10
2023-08-11T00:30:25.090Z,64.10
2023-08-11T00:32:26.953Z,64.20
2023-08-11T00:34:28.802Z,65.00
2023-08-11T00:36:30.598Z,64.20
2023-08-11T00:38:39.104Z,64.20
2023-08-11T00:40:40.915Z,64.40
2023-08-11T00:42:43.186Z,64.20
2023-08-11T00:44:44.962Z,64.40
2023-08-11T00:46:47.209Z,64.50
2023-08-11T00:48:52.246Z,64.70
2023-08-11T00:50:58.563Z,64.50
2023-08-11T00:53:02.361Z,64.40
2023-08-11T00:55:05.391Z,64.50
2023-08-11T00:57:08.515Z,64.60
2023-08-11T00:59:16.738Z,64.80
2023-08-11T01:01:18.724Z,65.00
2023-08-11T01:03:20.620Z,64.70
2023-08-11T01:05:22.923Z,64.80
2023-08-11T01:07:32.394Z,64.80
2023-08-11T01:10:05.000Z,65.00
2023-08-11T01:12:09.613Z,65.30
2023-08-11T01:14:19.739Z,65.00
2023-08-11T01:16:24.968Z,65.30
2023-08-11T01:18:29.558Z,65.00
2023-08-11T01:20:32.604Z,65.00
2023-08-11T01:22:36.521Z,64.80
2023-08-11T01:24:38.703Z,65.10
2023-08-11T01:26:40.609Z,65.10
2023-08-11T01:28:43.163Z,65.10
2023-08-11T01:30:45.266Z,65.10
2023-08-11T01:32:49.448Z,65.10
2023-08-11T01:34:51.244Z,64.80
2023-08-11T01:36:59.954Z,65.00
2023-08-11T01:39:01.760Z,65.20
2023-08-11T01:41:03.606Z,64.90
2023-08-11T01:43:08.253Z,65.80
2023-08-11T01:45:12.165Z,65.00
2023-08-11T01:47:14.022Z,65.20
2023-08-11T01:49:15.899Z,65.10
2023-08-11T01:51:17.958Z,65.20
2023-08-11T01:53:19.753Z,65.30
2023-08-11T01:55:22.214Z,65.10
2023-08-11T01:57:24.242Z,65.10
2023-08-11T01:59:26.678Z,65.20
2023-08-11T02:01:28.485Z,65.20
2023-08-11T02:03:31.405Z,65.30
2023-08-11T02:05:33.293Z,65.50
2023-08-11T02:07:38.891Z,65.00
2023-08-11T02:09:40.840Z,65.20
2023-08-11T02:11:42.931Z,65.00
2023-08-11T02:13:44.731Z,65.20
2023-08-11T02:15:46.927Z,65.20
2023-08-11T02:17:48.805Z,65.20
2023-08-11T02:19:52.174Z,65.30
2023-08-11T02:21:54.321Z,65.70
2023-08-11T02:23:56.306Z,65.00
2023-08-11T02:25:58.122Z,65.20
2023-08-11T02:27:59.915Z,65.30
2023-08-11T02:30:03.085Z,65.30
2023-08-11T02:32:05.173Z,65.40
2023-08-11T02:34:06.981Z,65.50
2023-08-11T02:36:08.742Z,65.70
2023-08-11T02:38:10.503Z,65.70
2023-08-11T02:40:12.503Z,65.50
2023-08-11T02:42:14.309Z,65.40
2023-08-11T02:44:16.170Z,65.50
2023-08-11T02:46:17.962Z,65.50
2023-08-11T02:48:19.778Z,65.50
2023-08-11T02:50:21.620Z,65.60
2023-08-11T02:52:23.438Z,65.60
2023-08-11T02:54:25.232Z,65.70
2023-08-11T02:56:27.346Z,65.70
2023-08-11T02:58:29.443Z,65.70
2023-08-11T03:00:31.497Z,65.70
2023-08-11T03:02:33.418Z,65.70
2023-08-11T03:04:37.544Z,65.80
2023-08-11T03:06:39.499Z,65.80
2023-08-11T03:08:41.839Z,65.70
2023-08-11T03:10:56.197Z,65.80
2023-08-11T03:13:02.290Z,65.80
2023-08-11T03:15:06.519Z,65.80
2023-08-11T03:17:11.190Z,65.90
2023-08-11T03:19:13.709Z,65.70
2023-08-11T03:21:19.941Z,65.70
2023-08-11T03:23:23.977Z,65.80
2023-08-11T03:25:26.688Z,65.90
2023-08-11T03:27:28.520Z,65.80
2023-08-11T03:29:30.390Z,65.90
2023-08-11T03:31:33.576Z,65.80
2023-08-11T03:33:35.584Z,66.00
2023-08-11T03:35:42.297Z,66.00
2023-08-11T03:37:44.262Z,66.90
2023-08-11T03:39:47.203Z,66.10
2023-08-11T03:41:48.985Z,66.00
2023-08-11T03:43:51.006Z,66.30
2023-08-11T03:45:53.228Z,65.90
2023-08-11T03:47:55.693Z,66.10
2023-08-11T03:49:59.466Z,66.20
2023-08-11T03:52:01.401Z,66.20
2023-08-11T03:54:05.972Z,66.10
2023-08-11T03:56:10.557Z,66.20
2023-08-11T03:58:18.813Z,66.40
2023-08-11T04:00:24.495Z,66.50
2023-08-11T04:02:48.253Z,66.40
2023-08-11T04:04:51.889Z,66.30
2023-08-11T04:06:53.682Z,66.30
2023-08-11T04:08:56.215Z,66.40
2023-08-11T04:10:58.004Z,66.50
2023-08-11T04:12:59.968Z,66.50
2023-08-11T04:15:01.791Z,66.60
2023-08-11T04:17:04.075Z,66.70
2023-08-11T04:19:06.067Z,66.60
2023-08-11T04:21:07.852Z,66.80
2023-08-11T04:23:09.732Z,66.60
2023-08-11T04:25:13.914Z,66.60
2023-08-11T04:27:18.801Z,66.70
2023-08-11T04:29:23.130Z,66.80
2023-08-11T04:31:26.240Z,66.90
2023-08-11T04:33:29.582Z,66.90
2023-08-11T04:35:31.401Z,66.90
2023-08-11T04:37:34.273Z,66.80
2023-08-11T04:39:38.096Z,66.80
2023-08-11T04:41:42.481Z,66.90
2023-08-11T04:43:44.289Z,66.90
2023-08-11T04:45:47.088Z,66.90
2023-08-11T04:47:52.007Z,66.90
2023-08-11T04:49:56.296Z,67.10
2023-08-11T04:51:59.947Z,67.10
2023-08-11T04:54:04.059Z,67.10
2023-08-11T04:56:06.036Z,67.00
2023-08-11T04:58:08.707Z,67.10
2023-08-11T05:00:18.116Z,67.20
2023-08-11T05:02:20.176Z,67.30
2023-08-11T05:04:22.670Z,67.40
2023-08-11T05:06:24.474Z,67.30
2023-08-11T05:08:26.378Z,67.30
2023-08-11T05:10:28.341Z,67.30
2023-08-11T05:12:30.647Z,67.40
2023-08-11T05:14:32.547Z,67.50
2023-08-11T05:16:34.425Z,67.60
2023-08-11T05:18:43.601Z,67.60
2023-08-11T05:20:47.679Z,67.50
2023-08-11T05:22:49.716Z,67.70
2023-08-11T05:24:51.522Z,67.80
2023-08-11T05:26:53.299Z,67.80
2023-08-11T05:28:55.130Z,67.90
2023-08-11T05:30:57.391Z,68.00
2023-08-11T05:32:59.370Z,68.00
2023-08-11T05:35:01.298Z,67.90
2023-08-11T05:37:04.531Z,67.80
2023-08-11T05:39:07.931Z,68.00
2023-08-11T05:41:10.197Z,68.00
2023-08-11T05:43:12.064Z,68.10
2023-08-11T05:45:16.159Z,68.10
2023-08-11T05:47:19.689Z,68.20
2023-08-11T05:49:21.500Z,68.20
2023-08-11T05:51:23.306Z,68.20
2023-08-11T05:53:25.091Z,68.30
2023-08-11T05:55:26.998Z,68.30
2023-08-11T05:57:28.889Z,68.40
2023-08-11T05:59:30.691Z,68.40
2023-08-11T06:01:32.752Z,68.40
2023-08-11T06:03:34.718Z,68.60
2023-08-11T06:05:36.567Z,68.50
2023-08-11T06:07:38.944Z,68.50
2023-08-11T06:09:41.679Z,68.70
2023-08-11T06:11:43.461Z,68.70
2023-08-11T06:13:45.364Z,68.80
2023-08-11T06:15:47.172Z,68.80
2023-08-11T06:17:51.287Z,68.80
2023-08-11T06:19:53.121Z,68.90
2023-08-11T06:21:55.739Z,68.90
2023-08-11T06:23:57.597Z,68.60
2023-08-11T06:25:59.718Z,68.50
2023-08-11T06:28:01.611Z,68.60
2023-08-11T06:30:05.437Z,68.50
2023-08-11T06:32:07.469Z,68.50
2023-08-11T06:34:09.501Z,68.50
2023-08-11T06:36:11.323Z,68.40
2023-08-11T06:38:13.166Z,68.30
2023-08-11T06:40:15.280Z,68.20
2023-08-11T06:42:17.107Z,68.30
2023-08-11T06:44:28.718Z,68.40
2023-08-11T06:46:30.455Z,68.20
2023-08-11T06:48:32.369Z,68.20
2023-08-11T06:50:34.164Z,68.10
2023-08-11T06:52:35.983Z,68.10
2023-08-11T06:54:37.772Z,68.10
2023-08-11T06:56:39.551Z,68.10
2023-08-11T06:58:41.322Z,68.10
2023-08-11T07:00:43.927Z,68.10
2023-08-11T07:02:45.759Z,68.10
2023-08-11T07:04:47.987Z,68.20
2023-08-11T07:06:49.831Z,68.20
2023-08-11T07:08:51.708Z,68.20
2023-08-11T07:10:53.549Z,68.10
2023-08-11T07:12:55.412Z,68.00
2023-08-11T07:14:57.250Z,68.00
2023-08-11T07:16:59.263Z,68.00
2023-08-11T07:19:01.134Z,68.00
2023-08-11T07:21:02.964Z,67.80
2023-08-11T07:23:04.822Z,67.90
2023-08-11T07:25:06.891Z,67.80
2023-08-11T07:27:08.979Z,68.00
2023-08-11T07:29:11.456Z,67.80
2023-08-11T07:31:13.357Z,67.80
2023-08-11T07:33:15.267Z,68.00
2023-08-11T07:35:18.011Z,68.00
2023-08-11T07:37:20.015Z,68.00
2023-08-11T07:39:23.840Z,68.00
2023-08-11T07:41:26.155Z,68.00
2023-08-11T07:43:28.063Z,68.30
2023-08-11T07:45:29.880Z,68.10
2023-08-11T07:47:31.768Z,67.70
2023-08-11T07:49:33.626Z,67.40
2023-08-11T07:51:35.454Z,67.10
2023-08-11T07:53:39.265Z,67.20
2023-08-11T07:55:42.157Z,67.20
2023-08-11T07:57:44.003Z,66.80
2023-08-11T07:59:45.834Z,66.70
2023-08-11T08:01:48.115Z,66.30
2023-08-11T08:03:50.251Z,66.00
2023-08-11T08:05:52.148Z,65.90
2023-08-11T08:07:54.053Z,65.50
2023-08-11T08:09:55.810Z,65.40
2023-08-11T08:11:57.603Z,65.30
2023-08-11T08:13:59.528Z,65.10
2023-08-11T08:16:01.687Z,65.00
2023-08-11T08:18:03.693Z,64.80
2023-08-11T08:20:10.476Z,64.70
2023-08-11T08:22:12.255Z,64.80
2023-08-11T08:24:15.322Z,64.90
2023-08-11T08:26:17.793Z,64.70
2023-08-11T08:28:19.626Z,64.50
2023-08-11T08:30:21.552Z,65.50
2023-08-11T08:32:23.562Z,64.60
2023-08-11T08:34:25.972Z,64.60
2023-08-11T08:36:28.114Z,64.60
2023-08-11T08:38:29.906Z,64.60
2023-08-11T08:40:33.046Z,64.40
2023-08-11T08:42:35.500Z,64.50
2023-08-11T08:44:38.024Z,64.50
2023-08-11T08:46:41.240Z,64.40
2023-08-11T08:49:05.098Z,64.30
2023-08-11T08:51:08.899Z,63.50
2023-08-11T08:53:11.397Z,63.60
2023-08-11T08:55:13.799Z,63.50
2023-08-11T08:57:17.708Z,63.50
2023-08-11T08:59:19.893Z,62.90
2023-08-11T09:01:23.031Z,63.80
2023-08-11T09:03:25.186Z,62.70
2023-08-11T09:05:27.438Z,62.40
2023-08-11T09:07:29.407Z,62.50
2023-08-11T09:09:31.371Z,62.50
2023-08-11T09:11:33.677Z,62.30
2023-08-11T09:13:38.587Z,61.70
2023-08-11T09:15:40.403Z,61.20
2023-08-11T09:17:42.899Z,61.10
2023-08-11T09:19:49.143Z,60.80
2023-08-11T09:21:51.114Z,61.00
2023-08-11T09:23:56.548Z,61.10
2023-08-11T09:25:58.477Z,61.10
2023-08-11T09:28:00.813Z,61.00
2023-08-11T09:30:03.486Z,60.90
2023-08-11T09:32:08.232Z,60.90
2023-08-11T09:34:19.773Z,61.10
2023-08-11T09:36:21.723Z,60.60
2023-08-11T09:38:26.283Z,60.80
2023-08-11T09:40:28.108Z,60.60
2023-08-11T09:42:29.960Z,60.10
2023-08-11T09:44:31.827Z,60.20
2023-08-11T09:46:37.354Z,60.40
2023-08-11T09:48:39.210Z,60.00
2023-08-11T09:50:41.911Z,60.30
2023-08-11T09:52:45.028Z,59.90
2023-08-11T09:54:49.555Z,60.00
2023-08-11T09:56:52.994Z,59.60
2023-08-11T09:58:58.224Z,59.70
2023-08-11T10:01:10.888Z,60.10
2023-08-11T10:03:29.975Z,59.50
2023-08-11T10:05:34.515Z,59.10
2023-08-11T10:07:43.065Z,59.30
2023-08-11T10:09:48.299Z,59.20
2023-08-11T10:11:52.114Z,58.70
2023-08-11T10:13:56.612Z,58.30
2023-08-11T10:15:58.798Z,58.50
2023-08-11T10:18:02.612Z,58.80
2023-08-11T10:20:06.240Z,58.30
2023-08-11T10:22:08.748Z,58.00
2023-08-11T10:24:11.235Z,57.90
2023-08-11T10:26:13.692Z,57.60
2023-08-11T10:28:17.562Z,57.80
2023-08-11T10:30:20.092Z,57.60
2023-08-11T10:32:24.674Z,57.60
2023-08-11T10:34:27.440Z,56.80
2023-08-11T10:36:29.327Z,57.50
2023-08-11T10:38:34.984Z,57.80
2023-08-11T10:40:40.085Z,57.10
2023-08-11T10:42:42.364Z,56.20
2023-08-11T10:44:47.036Z,55.70
2023-08-11T10:46:51.676Z,55.10
2023-08-11T10:49:00.322Z,54.20
2023-08-11T10:51:02.463Z,53.10
2023-08-11T10:53:08.158Z,54.30
2023-08-11T10:55:10.978Z,54.50
2023-08-11T10:57:12.990Z,54.60
2023-08-11T10:59:30.141Z,54.00
2023-08-11T11:01:35.919Z,54.40
2023-08-11T11:03:37.737Z,54.60
2023-08-11T11:05:43.251Z,54.80
2023-08-11T11:07:45.099Z,54.20
2023-08-11T11:09:47.596Z,54.40
2023-08-11T11:11:51.795Z,53.70
2023-08-11T11:13:53.675Z,53.70
2023-08-11T11:15:55.570Z,53.20
2023-08-11T11:17:57.564Z,53.60
2023-08-11T11:20:02.724Z,53.40
2023-08-11T11:22:07.159Z,53.40
2023-08-11T11:24:10.692Z,53.00
2023-08-11T11:26:14.843Z,52.90
2023-08-11T11:28:16.679Z,53.20
2023-08-11T11:30:19.661Z,52.30
2023-08-11T11:32:22.964Z,53.20
2023-08-11T11:34:25.024Z,53.90
2023-08-11T11:36:26.906Z,52.80
2023-08-11T11:38:28.998Z,51.70
2023-08-11T11:40:31.188Z,52.90
2023-08-11T11:42:34.660Z,52.50
2023-08-11T11:44:37.169Z,52.30
2023-08-11T11:46:39.357Z,52.00
2023-08-11T11:48:44.536Z,52.60
2023-08-11T11:50:46.356Z,52.60
2023-08-11T11:52:48.634Z,52.00
2023-08-11T11:54:54.358Z,51.90
2023-08-11T11:57:04.210Z,51.90
2023-08-11T11:59:07.016Z,51.20
2023-08-11T12:01:18.511Z,51.10
2023-08-11T12:03:22.025Z,51.30
2023-08-11T12:05:23.847Z,51.10
2023-08-11T12:07:33.059Z,50.40
2023-08-11T12:09:51.508Z,49.40
2023-08-11T12:11:56.310Z,50.20
2023-08-11T12:14:00.599Z,50.20
2023-08-11T12:16:03.145Z,51.30
2023-08-11T12:18:06.045Z,50.00
2023-08-11T12:20:09.431Z,51.10
2023-08-11T12:22:11.667Z,49.90
2023-08-11T12:24:15.636Z,49.60
2023-08-11T12:26:17.621Z,48.80
2023-08-11T12:28:20.199Z,48.70
2023-08-11T12:30:22.015Z,48.00
2023-08-11T12:32:23.894Z,49.40
2023-08-11T12:34:25.737Z,48.40
2023-08-11T12:36:27.667Z,48.90
2023-08-11T12:38:29.518Z,48.40
2023-08-11T12:40:31.441Z,47.80
2023-08-11T12:42:33.330Z,47.80
2023-08-11T12:44:35.995Z,47.30
2023-08-11T12:46:38.161Z,47.60
2023-08-11T12:48:40.144Z,47.70
2023-08-11T12:50:42.261Z,47.20
2023-08-11T12:52:44.094Z,46.90
2023-08-11T12:54:45.879Z,46.00
2023-08-11T12:56:47.818Z,46.10
2023-08-11T12:58:49.737Z,46.20
2023-08-11T13:00:51.629Z,46.10
2023-08-11T13:02:53.644Z,45.90
2023-08-11T13:04:55.560Z,45.20
2023-08-11T13:06:59.793Z,45.10
2023-08-11T13:09:02.761Z,45.50
2023-08-11T13:11:04.589Z,45.90
2023-08-11T13:13:06.363Z,46.50
2023-08-11T13:15:09.096Z,47.00
2023-08-11T13:17:11.763Z,46.30
2023-08-11T13:19:14.703Z,45.90
2023-08-11T13:21:16.545Z,46.50
2023-08-11T13:23:18.462Z,45.70
2023-08-11T13:25:20.379Z,46.10
2023-08-11T13:27:22.173Z,45.40
2023-08-11T13:29:24.540Z,45.20
2023-08-11T13:31:26.763Z,45.40
2023-08-11T13:33:28.632Z,45.10
2023-08-11T13:35:30.530Z,45.00
2023-08-11T13:37:32.280Z,45.30
2023-08-11T13:39:34.476Z,45.10
2023-08-11T13:41:36.754Z,44.30
2023-08-11T13:43:38.778Z,44.80
2023-08-11T13:45:40.584Z,44.70
2023-08-11T13:47:42.462Z,43.90
2023-08-11T13:49:44.323Z,44.50
2023-08-11T13:51:46.476Z,43.60
2023-08-11T13:53:48.375Z,44.10
2023-08-11T13:55:50.254Z,43.10
2023-08-11T13:57:52.055Z,44.80
2023-08-11T13:59:59.612Z,42.80
2023-08-11T14:02:02.174Z,42.60
2023-08-11T14:04:04.136Z,43.20
2023-08-11T14:06:05.919Z,43.30
2023-08-11T14:08:07.710Z,43.30
2023-08-11T14:10:09.862Z,43.90
2023-08-11T14:12:12.062Z,43.60
2023-08-11T14:14:13.852Z,44.00
2023-08-11T14:16:15.708Z,43.70
2023-08-11T14:18:17.571Z,43.60
2023-08-11T14:20:19.401Z,44.30
2023-08-11T14:22:21.147Z,44.60
2023-08-11T14:24:23.031Z,43.30
2023-08-11T14:26:24.790Z,43.90
2023-08-11T14:28:27.618Z,43.90
2023-08-11T14:30:29.448Z,44.50
2023-08-11T14:32:31.569Z,43.60
2023-08-11T14:34:33.628Z,43.20
2023-08-11T14:36:35.387Z,43.10
2023-08-11T14:38:37.107Z,44.00
2023-08-11T14:40:38.898Z,44.10
2023-08-11T14:42:40.846Z,45.30
2023-08-11T14:44:43.193Z,45.90
2023-08-11T14:47:13.949Z,46.00
2023-08-11T14:50:02.373Z,46.40
2023-08-11T14:52:33.934Z,44.20
2023-08-11T14:54:38.490Z,44.20
2023-08-11T14:56:43.924Z,44.90
2023-08-11T14:58:51.486Z,44.50
2023-08-11T15:00:54.609Z,43.90
2023-08-11T15:03:07.069Z,43.70
2023-08-11T15:05:16.210Z,45.60
2023-08-11T15:07:21.046Z,44.80
2023-08-11T15:11:53.740Z,46.50
2023-08-11T15:14:02.110Z,46.00
2023-08-11T15:16:09.873Z,45.40
2023-08-11T15:18:22.025Z,45.80
2023-08-11T15:20:32.192Z,44.50
2023-08-11T15:22:34.561Z,45.60
2023-08-11T15:24:36.368Z,45.70
2023-08-11T15:26:49.695Z,46.20
2023-08-11T15:28:54.803Z,46.70
2023-08-11T15:31:24.061Z,44.70
2023-08-11T15:34:06.270Z,45.60
2023-08-11T15:36:11.472Z,45.60
2023-08-11T15:38:22.436Z,44.90
2023-08-11T15:40:28.137Z,44.40
2023-08-11T15:42:55.981Z,43.40
2023-08-11T15:45:21.369Z,44.50
2023-08-11T15:47:35.697Z,43.80
2023-08-11T15:52:05.365Z,43.10
2023-08-11T15:54:15.704Z,43.90
2023-08-11T15:56:28.448Z,45.00
2023-08-11T15:58:44.668Z,45.70
2023-08-11T16:01:20.310Z,45.00
2023-08-11T16:03:31.230Z,45.40
2023-08-11T16:05:38.956Z,44.10
2023-08-11T16:07:40.733Z,45.40
2023-08-11T16:09:43.154Z,44.70
2023-08-11T16:11:48.130Z,45.00
2023-08-11T16:13:50.004Z,44.80
2023-08-11T16:15:51.913Z,45.40
2023-08-11T16:17:55.844Z,45.60
2023-08-11T16:19:57.970Z,44.80
2023-08-11T16:21:59.778Z,45.00
2023-08-11T16:24:01.722Z,44.30
2023-08-11T16:26:03.937Z,44.20
2023-08-11T16:28:05.929Z,44.50
2023-08-11T16:30:11.257Z,44.60
2023-08-11T16:32:13.363Z,44.70
2023-08-11T16:34:15.505Z,45.20
2023-08-11T16:36:19.480Z,45.50
2023-08-11T16:38:23.016Z,45.30
2023-08-11T16:40:24.957Z,45.40
2023-08-11T16:42:26.926Z,46.10
2023-08-11T16:44:28.919Z,46.10
2023-08-11T16:46:30.799Z,46.30
2023-08-11T16:48:32.609Z,47.80
2023-08-11T16:50:34.351Z,46.90
2023-08-11T16:52:36.138Z,46.70
2023-08-11T16:54:37.932Z,46.70
2023-08-11T16:56:39.750Z,47.10
2023-08-11T16:58:41.539Z,47.50
2023-08-11T17:00:43.381Z,47.60
2023-08-11T17:02:46.470Z,47.60
2023-08-11T17:04:48.596Z,48.10
2023-08-11T17:06:51.492Z,48.30
2023-08-11T17:08:53.511Z,48.60
2023-08-11T17:10:55.484Z,48.70
2023-08-11T17:12:57.975Z,49.10
2023-08-11T17:14:59.781Z,49.30
2023-08-11T17:17:01.745Z,49.50
2023-08-11T17:19:03.700Z,49.80
2023-08-11T17:21:05.512Z,50.10
2023-08-11T17:23:07.580Z,50.40
2023-08-11T17:25:09.629Z,50.70
2023-08-11T17:27:11.586Z,51.10
2023-08-11T17:29:13.391Z,51.20
2023-08-11T17:31:15.379Z,51.40
2023-08-11T17:33:17.342Z,51.70
2023-08-11T17:35:19.209Z,51.80
2023-08-11T17:37:21.086Z,52.10
2023-08-11T17:39:22.910Z,52.30
2023-08-11T17:41:25.556Z,52.60
2023-08-11T17:43:27.515Z,52.70
2023-08-11T17:45:32.489Z,52.90
2023-08-11T17:47:34.534Z,53.10
2023-08-11T17:49:37.060Z,53.40
2023-08-11T17:51:38.956Z,53.60
2023-08-11T17:53:41.005Z,53.80
2023-08-11T17:55:43.354Z,53.90
2023-08-11T17:57:45.155Z,54.00
2023-08-11T17:59:46.957Z,53.80
2023-08-11T18:01:49.323Z,54.00
2023-08-11T18:03:51.236Z,54.20
2023-08-11T18:05:53.130Z,54.30
2023-08-11T18:07:54.941Z,54.50
2023-08-11T18:09:56.786Z,54.70
2023-08-11T18:11:58.586Z,54.80
2023-08-11T18:14:00.854Z,55.00
2023-08-11T18:16:02.776Z,55.00
2023-08-11T18:18:04.966Z,55.20
2023-08-11T18:20:08.229Z,55.20
2023-08-11T18:22:10.287Z,55.40
2023-08-11T18:24:12.308Z,55.50
2023-08-11T18:26:14.788Z,55.60
2023-08-11T18:28:16.646Z,55.60
2023-08-11T18:30:18.465Z,55.80
2023-08-11T18:32:20.376Z,55.80
2023-08-11T18:34:22.118Z,55.90
2023-08-11T18:36:23.918Z,55.90
2023-08-11T18:38:25.857Z,56.00
2023-08-11T18:40:27.658Z,56.20
2023-08-11T18:42:29.760Z,56.30
2023-08-11T18:44:54.192Z,56.40
2023-08-11T18:47:13.761Z,56.50
2023-08-11T18:49:15.882Z,56.60
2023-08-11T18:51:34.045Z,56.70
2023-08-11T18:53:36.155Z,57.00
2023-08-11T18:55:38.132Z,56.70
2023-08-11T18:57:40.222Z,56.70
2023-08-11T18:59:42.212Z,56.80
2023-08-11T19:01:57.865Z,56.90
2023-08-11T19:04:00.095Z,57.30
2023-08-11T19:06:02.211Z,57.00
2023-08-11T19:11:03.108Z,57.70
2023-08-11T19:13:34.585Z,57.50
2023-08-11T19:18:50.038Z,57.90
2023-08-11T19:20:52.047Z,57.80
2023-08-11T19:22:54.001Z,57.50
2023-08-11T19:24:56.150Z,57.50
2023-08-11T19:27:27.696Z,57.50
2023-08-11T19:29:53.506Z,58.10
2023-08-11T19:32:23.133Z,58.20
2023-08-11T19:34:26.503Z,57.80
2023-08-11T19:36:28.420Z,57.90
2023-08-11T19:39:07.126Z,58.10
2023-08-11T19:41:54.067Z,58.50
2023-08-11T19:43:59.194Z,58.60
2023-08-11T19:46:01.045Z,58.20
2023-08-11T19:48:05.229Z,58.20
2023-08-11T19:50:07.623Z,58.20
2023-08-11T19:52:09.638Z,58.30
2023-08-11T19:54:11.931Z,58.40
2023-08-11T19:56:13.755Z,58.50
2023-08-11T19:58:16.529Z,58.60
2023-08-11T20:00:18.349Z,58.70
2023-08-11T20:02:20.960Z,58.70
2023-08-11T20:04:51.051Z,58.40
2023-08-11T20:07:32.220Z,59.00
2023-08-11T20:09:43.360Z,59.20
2023-08-11T20:11:57.035Z,58.70
2023-08-11T20:14:12.204Z,59.10
2023-08-11T20:16:38.520Z,59.00
2023-08-11T20:25:36.972Z,59.40
2023-08-11T20:49:01.553Z,59.90
2023-08-11T20:55:52.837Z,60.40
2023-08-11T21:23:20.506Z,61.20
2023-08-11T21:25:25.514Z,60.50
2023-08-11T21:38:29.214Z,61.50
2023-08-11T21:40:31.068Z,61.70
2023-08-11T21:42:32.863Z,61.00
2023-08-11T21:44:35.754Z,61.30
2023-08-11T21:46:37.734Z,61.50
2023-08-11T21:48:43.247Z,61.60
2023-08-11T21:50:45.142Z,61.60
2023-08-11T21:52:46.910Z,61.70
2023-08-11T21:54:48.726Z,61.80
2023-08-11T21:56:50.590Z,62.00
2023-08-11T21:58:52.361Z,62.00
2023-08-11T22:00:54.258Z,62.10
2023-08-11T22:02:56.055Z,62.20
2023-08-11T22:05:01.250Z,62.10
2023-08-11T22:07:03.364Z,62.40
2023-08-11T22:09:05.551Z,62.30
2023-08-11T22:11:33.859Z,62.40
2023-08-11T22:13:57.195Z,62.40
2023-08-11T22:15:59.125Z,62.10
2023-08-11T22:18:00.980Z,62.20
2023-08-11T22:20:04.170Z,62.30
2023-08-11T22:22:05.986Z,62.40
2023-08-11T22:24:08.099Z,62.50
2023-08-11T22:26:09.864Z,62.60
2023-08-11T22:28:11.703Z,62.50
2023-08-11T22:30:14.399Z,62.60
2023-08-11T22:32:16.745Z,62.60
2023-08-11T22:34:18.582Z,62.70
2023-08-11T22:36:20.477Z,62.70
2023-08-11T22:38:22.283Z,62.70
2023-08-11T22:40:24.115Z,62.70
2023-08-11T22:42:27.586Z,62.70
2023-08-11T22:44:29.425Z,62.80
2023-08-11T22:46:31.328Z,62.90
2023-08-11T22:48:35.367Z,62.90
2023-08-11T22:50:37.174Z,63.00
2023-08-11T22:52:39.034Z,63.80
2023-08-11T22:54:40.844Z,63.10
2023-08-11T22:56:42.644Z,62.80
2023-08-11T22:58:44.478Z,62.90
2023-08-11T23:00:46.365Z,62.90
2023-08-11T23:02:48.336Z,63.00
2023-08-11T23:04:55.008Z,63.10
2023-08-11T23:06:56.878Z,63.20
2023-08-11T23:08:58.669Z,63.20
2023-08-11T23:11:00.589Z,63.30
2023-08-11T23:13:02.396Z,63.30
2023-08-11T23:15:05.898Z,63.30
2023-08-11T23:17:07.676Z,63.40
2023-08-11T23:19:09.451Z,63.60
2023-08-11T23:21:11.236Z,63.70
2023-08-11T23:23:13.018Z,63.80
2023-08-11T23:25:14.925Z,63.80
2023-08-11T23:27:18.272Z,63.80
2023-08-11T23:29:20.096Z,64.00
2023-08-11T23:31:21.913Z,64.00
2023-08-11T23:33:23.840Z,64.10
2023-08-11T23:35:25.686Z,64.10
2023-08-11T23:37:28.635Z,64.90
2023-08-11T23:39:31.583Z,64.10
2023-08-11T23:41:33.305Z,64.30
2023-08-11T23:43:35.177Z,64.20
2023-08-11T23:45:37.017Z,63.90
2023-08-11T23:47:38.872Z,64.20
2023-08-11T23:49:40.709Z,64.40
2023-08-11T23:51:42.504Z,64.50
2023-08-11T23:53:44.320Z,64.60
2023-08-11T23:55:46.140Z,64.70
2023-08-11T23:57:47.967Z,64.70
2023-08-11T23:59:49.830Z,64.70
